Time;durP1;ratioP1;P1;durP2;ratioP2;P2;SDS_P1;SDS_P2;PMS_P1;PMS_P2;Temp;Humidity;BMP_temperature;BMP_pressure;BME280_temperature;BME280_humidity;BME280_pressure;Samples;Min_cycle;Max_cycle;Signal;HPM_P1;HPM_P2
2022/01/23 00:04:37;;;;;;;;;;;;;;;4.56;90.25;102131.16;4993684;28;1953;-85
2022/01/23 00:07:05;;;;;;;;;;;;;;;4.55;90.13;102134.91;4976647;28;1319;-86
2022/01/23 00:09:31;;;;;;;;;;;;;;;4.55;90.32;102143.03;4996497;28;1659;-84
2022/01/23 00:11:57;;;;;;;;;;;;;;;4.55;89.95;102140.34;4969068;28;1384;-86
2022/01/23 00:17:17;;;;;;;;;;;;;;;4.52;90.28;102141.56;4980953;28;1358;-85
2022/01/23 00:19:42;;;;;;;;;;;;;;;4.53;90.33;102132.38;4978394;28;1450;-85
2022/01/23 00:22:09;;;;;;;;;;;;;;;4.57;90.09;102130.97;4979360;28;1358;-85
2022/01/23 00:32:44;;;;;;;;;;;;;;;4.46;90.55;102152.38;4985519;28;847;-85
2022/01/23 00:35:09;;;;;;;;;;;;;;;4.40;90.62;102155.91;4963892;28;1360;-86
2022/01/23 00:37:35;;;;;;;;;;;;;;;4.37;90.49;102148.16;4977288;28;1053;-86
2022/01/23 00:40:00;;;;;;;;;;;;;;;4.31;90.95;102152.50;4960053;28;1321;-86
2022/01/23 00:42:27;;;;;;;;;;;;;;;4.31;90.63;102146.25;4977111;28;1029;-86
2022/01/23 00:44:59;;;;;;;;;;;;;;;4.33;90.68;102149.59;4993657;28;1910;-86
2022/01/23 00:47:25;;;;;;;;;;;;;;;4.33;90.73;102139.59;4979287;28;1380;-86
2022/01/23 00:49:50;;;;;;;;;;;;;;;4.32;90.36;102145.22;4996466;28;1065;-86
2022/01/23 00:52:17;;;;;;;;;;;;;;;4.29;90.41;102151.84;4979453;28;1116;-87
2022/01/23 00:54:42;;;;;;;;;;;;;;;4.29;90.96;102142.88;4977232;28;1414;-86
2022/01/23 00:57:07;;;;;;;;;;;;;;;4.30;90.52;102152.69;4991833;28;1300;-86
2022/01/23 00:59:33;;;;;;;;;;;;;;;4.32;90.29;102156.91;4959910;28;1031;-86
2022/01/23 01:01:58;;;;;;;;;;;;;;;4.31;90.53;102162.50;4968743;28;1615;-86
2022/01/23 01:04:23;;;;;;;;;;;;;;;4.30;90.43;102166.25;4978963;28;1327;-86
2022/01/23 01:06:48;;;;;;;;;;;;;;;4.28;90.09;102163.72;4995916;28;1955;-86
2022/01/23 01:09:14;;;;;;;;;;;;;;;4.31;90.26;102163.34;4974255;28;1249;-87
2022/01/23 01:11:56;;;;;;;;;;;;;;;4.28;89.90;102160.19;4996028;28;815;-86
2022/01/23 01:17:23;;;;;;;;;;;;;;;4.35;89.89;102166.47;4994165;28;1479;-85
2022/01/23 01:31:00;;;;;;;;;;;;;;;4.27;89.83;102153.91;4995687;28;1224;-85
2022/01/23 01:33:38;;;;;;;;;;;;;;;4.27;89.99;102151.22;4978054;28;1627;-85
2022/01/23 01:36:20;;;;;;;;;;;;;;;4.32;89.88;102139.78;4977933;28;1631;-86
2022/01/23 01:38:46;;;;;;;;;;;;;;;4.31;89.62;102138.13;4995419;28;1655;-86
2022/01/23 01:41:11;;;;;;;;;;;;;;;4.23;89.99;102147.25;4978129;28;1213;-85
2022/01/23 01:43:36;;;;;;;;;;;;;;;4.24;90.10;102148.09;4977881;28;1414;-86
2022/01/23 01:46:03;;;;;;;;;;;;;;;4.25;90.13;102149.75;4978038;28;1966;-86
2022/01/23 01:48:28;;;;;;;;;;;;;;;4.27;90.03;102139.53;4995208;28;1655;-86
2022/01/23 01:50:55;;;;;;;;;;;;;;;4.30;90.16;102148.13;4977929;28;1357;-86
2022/01/23 01:53:21;;;;;;;;;;;;;;;4.33;90.32;102146.88;4978013;28;1471;-86
2022/01/23 01:55:51;;;;;;;;;;;;;;;4.34;90.35;102148.56;4977787;28;1182;-86
2022/01/23 02:01:03;;;;;;;;;;;;;;;4.32;90.29;102153.34;4995624;28;1056;-85
2022/01/23 02:08:43;;;;;;;;;;;;;;;4.29;90.99;102161.84;4993785;28;671;-86
2022/01/23 02:11:20;;;;;;;;;;;;;;;4.27;91.02;102159.34;4970666;28;1339;-86
2022/01/23 02:51:43;;;;;;;;;;;;;;;4.10;91.85;102158.81;4994822;28;658;-87
2022/01/23 02:56:44;;;;;;;;;;;;;;;4.11;91.62;102168.63;4994632;28;1173;-86
2022/01/23 02:59:21;;;;;;;;;;;;;;;4.00;92.24;102168.31;4994355;28;868;-86
2022/01/23 03:02:09;;;;;;;;;;;;;;;4.05;92.24;102174.00;4976771;28;1364;-87
2022/01/23 03:04:38;;;;;;;;;;;;;;;4.10;92.20;102177.78;4976925;28;1300;-86
2022/01/23 03:07:18;;;;;;;;;;;;;;;4.16;92.06;102179.72;4976679;28;1214;-86
2022/01/23 03:10:05;;;;;;;;;;;;;;;4.07;92.26;102189.03;4976784;28;1220;-86
2022/01/23 03:15:29;;;;;;;;;;;;;;;4.09;92.44;102184.22;4994219;28;1379;-85
2022/01/23 03:29:19;;;;;;;;;;;;;;;4.06;92.49;102184.66;4965599;28;1393;-85
2022/01/23 03:34:16;;;;;;;;;;;;;;;3.99;92.64;102188.34;5020325;28;1107;-85
2022/01/23 03:36:41;;;;;;;;;;;;;;;4.00;92.78;102176.44;5002491;28;1203;-86
2022/01/23 03:39:10;;;;;;;;;;;;;;;4.00;92.73;102188.13;5018435;28;808;-86
2022/01/23 03:41:36;;;;;;;;;;;;;;;3.96;92.81;102183.28;4980468;28;1245;-86
2022/01/23 03:44:04;;;;;;;;;;;;;;;3.98;92.70;102187.50;4980372;28;1173;-86
2022/01/23 03:52:07;;;;;;;;;;;;;;;4.04;92.56;102191.28;4997792;28;1571;-86
2022/01/23 03:54:33;;;;;;;;;;;;;;;3.93;92.84;102184.53;4997732;28;1492;-86
2022/01/23 03:56:59;;;;;;;;;;;;;;;3.86;93.04;102183.63;4984859;28;1287;-86
2022/01/23 03:59:24;;;;;;;;;;;;;;;3.84;92.85;102177.56;4978561;28;816;-86
2022/01/23 04:01:49;;;;;;;;;;;;;;;3.81;92.99;102177.97;4997478;28;863;-86
2022/01/23 04:04:36;;;;;;;;;;;;;;;3.73;93.10;102178.09;4980249;28;1248;-85
2022/01/23 04:07:02;;;;;;;;;;;;;;;3.58;93.20;102163.78;4979782;28;1955;-86
2022/01/23 04:09:27;;;;;;;;;;;;;;;3.53;93.31;102166.25;4979828;28;1367;-85
2022/01/23 04:11:53;;;;;;;;;;;;;;;3.46;93.35;102176.16;4979784;28;1253;-86
2022/01/23 04:14:20;;;;;;;;;;;;;;;3.42;93.34;102171.13;4997226;28;859;-86
2022/01/23 04:17:14;;;;;;;;;;;;;;;3.34;93.25;102181.25;4960415;28;1304;-86
2022/01/23 05:00:23;;;;;;;;;;;;;;;2.49;91.86;102225.09;4996763;28;744;-87
2022/01/23 05:05:18;;;;;;;;;;;;;;;2.44;91.19;102224.81;4996514;28;1967;-87
2022/01/23 05:07:46;;;;;;;;;;;;;;;2.35;91.24;102220.53;4978909;28;1572;-87
2022/01/23 05:10:11;;;;;;;;;;;;;;;2.41;91.57;102232.44;4978762;28;1577;-87
2022/01/23 05:12:36;;;;;;;;;;;;;;;2.32;91.45;102231.69;4978531;28;1339;-87
2022/01/23 05:15:02;;;;;;;;;;;;;;;2.36;91.27;102233.00;4978834;28;1706;-87
2022/01/23 05:17:27;;;;;;;;;;;;;;;2.26;90.93;102227.03;4978565;28;1332;-87
2022/01/23 05:19:53;;;;;;;;;;;;;;;2.31;90.70;102231.84;4975254;28;1474;-87
2022/01/23 05:25:01;;;;;;;;;;;;;;;2.36;90.57;102234.88;4985306;28;1969;-87
2022/01/23 05:27:27;;;;;;;;;;;;;;;2.23;90.60;102227.38;4978461;28;1647;-87
2022/01/23 05:29:54;;;;;;;;;;;;;;;2.37;90.83;102232.00;4978356;28;1835;-87
2022/01/23 05:32:20;;;;;;;;;;;;;;;2.47;90.45;102224.44;4977330;28;1621;-87
2022/01/23 05:34:47;;;;;;;;;;;;;;;2.45;90.32;102233.75;4978139;28;1359;-87
2022/01/23 05:37:12;;;;;;;;;;;;;;;2.45;90.84;102231.91;4969742;28;1545;-86
2022/01/23 05:39:37;;;;;;;;;;;;;;;2.49;90.23;102226.94;4993038;28;1600;-86
2022/01/23 05:42:07;;;;;;;;;;;;;;;2.49;90.53;102235.91;4975356;28;1386;-86
2022/01/23 05:44:33;;;;;;;;;;;;;;;2.47;90.23;102227.13;4995413;28;1623;-87
2022/01/23 05:46:58;;;;;;;;;;;;;;;2.34;90.25;102232.34;4977117;28;1977;-87
2022/01/23 05:49:23;;;;;;;;;;;;;;;2.32;90.36;102239.78;4973809;28;1683;-87
2022/01/23 05:51:48;;;;;;;;;;;;;;;2.30;90.30;102241.03;4969815;28;1631;-86
2022/01/23 05:54:14;;;;;;;;;;;;;;;2.42;90.78;102239.53;4993558;28;1303;-86
2022/01/23 05:56:39;;;;;;;;;;;;;;;2.45;90.62;102242.72;4977813;28;1822;-87
2022/01/23 05:59:04;;;;;;;;;;;;;;;2.48;90.58;102257.69;4992792;28;1529;-86
2022/01/23 06:01:29;;;;;;;;;;;;;;;2.45;90.32;102252.69;4977456;28;1319;-86
2022/01/23 06:03:54;;;;;;;;;;;;;;;2.44;90.35;102248.28;4966195;28;1665;-87
2022/01/23 06:06:20;;;;;;;;;;;;;;;2.51;90.33;102260.88;4972341;28;1919;-86
2022/01/23 06:08:45;;;;;;;;;;;;;;;2.53;90.36;102255.31;4973702;28;1371;-86
2022/01/23 06:11:10;;;;;;;;;;;;;;;2.56;90.65;102255.75;4976260;28;1359;-87
2022/01/23 06:13:35;;;;;;;;;;;;;;;2.57;90.18;102259.28;4962385;28;1637;-87
2022/01/23 06:16:00;;;;;;;;;;;;;;;2.55;90.37;102259.47;4974060;28;1721;-86
2022/01/23 06:18:26;;;;;;;;;;;;;;;2.53;90.41;102261.53;4976665;28;1366;-87
2022/01/23 06:20:51;;;;;;;;;;;;;;;2.55;90.52;102264.88;4977292;28;1418;-87
2022/01/23 06:23:17;;;;;;;;;;;;;;;2.55;90.16;102264.06;4970270;28;1391;-86
2022/01/23 06:25:43;;;;;;;;;;;;;;;2.51;90.33;102262.75;4963834;28;1898;-87
2022/01/23 06:28:08;;;;;;;;;;;;;;;2.62;90.60;102263.16;4972190;28;1696;-86
2022/01/23 06:30:34;;;;;;;;;;;;;;;2.61;90.68;102266.03;4977702;28;1320;-87
2022/01/23 06:32:59;;;;;;;;;;;;;;;2.64;90.66;102274.59;4994553;28;1565;-86
2022/01/23 06:35:24;;;;;;;;;;;;;;;2.71;90.78;102272.00;4973265;28;1469;-86
2022/01/23 06:37:49;;;;;;;;;;;;;;;2.75;90.76;102258.94;4993975;28;1442;-87
2022/01/23 06:40:15;;;;;;;;;;;;;;;2.69;90.38;102263.25;4977177;28;1426;-86
2022/01/23 06:42:40;;;;;;;;;;;;;;;2.64;90.40;102258.38;4972954;28;1465;-87
2022/01/23 06:45:05;;;;;;;;;;;;;;;2.53;90.70;102260.72;4966579;28;1965;-86
2022/01/23 06:47:30;;;;;;;;;;;;;;;2.57;90.73;102260.13;4958051;28;1321;-87
2022/01/23 06:49:57;;;;;;;;;;;;;;;2.65;90.83;102260.06;4992390;28;1601;-87
2022/01/23 06:52:23;;;;;;;;;;;;;;;2.63;91.16;102250.47;4977078;28;1274;-86
2022/01/23 06:54:51;;;;;;;;;;;;;;;2.59;90.78;102265.38;4977161;28;1736;-86
2022/01/23 06:57:16;;;;;;;;;;;;;;;2.58;90.82;102263.69;4977015;28;1327;-87
2022/01/23 06:59:41;;;;;;;;;;;;;;;2.60;91.22;102264.34;4976303;28;1342;-87
2022/01/23 07:02:07;;;;;;;;;;;;;;;2.66;91.28;102267.13;4977004;28;1185;-86
2022/01/23 07:04:33;;;;;;;;;;;;;;;2.69;91.35;102276.75;4977279;28;1304;-86
2022/01/23 07:06:58;;;;;;;;;;;;;;;2.71;91.32;102268.47;4977243;28;1902;-86
2022/01/23 07:09:23;;;;;;;;;;;;;;;2.67;91.25;102279.63;4977219;28;1390;-87
2022/01/23 07:11:48;;;;;;;;;;;;;;;2.66;91.18;102283.38;4976980;28;986;-87
2022/01/23 07:14:13;;;;;;;;;;;;;;;2.60;90.92;102289.50;4963583;28;1775;-87
2022/01/23 07:16:38;;;;;;;;;;;;;;;2.69;91.44;102290.28;4976377;28;1701;-87
2022/01/23 07:19:04;;;;;;;;;;;;;;;2.75;91.49;102291.38;4973999;28;1494;-87
2022/01/23 07:21:29;;;;;;;;;;;;;;;2.73;91.52;102294.25;4963290;28;1002;-87
2022/01/23 07:23:54;;;;;;;;;;;;;;;2.74;91.07;102295.09;4973910;28;1309;-87
2022/01/23 07:26:22;;;;;;;;;;;;;;;2.78;91.50;102299.13;4975084;28;1902;-87
2022/01/23 07:28:47;;;;;;;;;;;;;;;2.76;91.29;102310.13;4986486;28;1744;-87
2022/01/23 07:31:21;;;;;;;;;;;;;;;2.78;91.48;102312.66;4968010;28;1262;-87
2022/01/23 07:33:46;;;;;;;;;;;;;;;2.89;91.40;102317.63;4964353;28;1394;-86
2022/01/23 07:36:12;;;;;;;;;;;;;;;2.88;91.51;102310.53;4994009;28;1562;-87
2022/01/23 07:38:37;;;;;;;;;;;;;;;2.92;91.40;102312.66;4976873;28;1545;-87
2022/01/23 07:41:02;;;;;;;;;;;;;;;2.91;91.65;102310.13;4974450;28;1495;-87
2022/01/23 07:43:27;;;;;;;;;;;;;;;2.87;91.57;102306.97;4975700;28;1703;-86
2022/01/23 07:45:52;;;;;;;;;;;;;;;2.84;91.38;102318.16;4976366;28;1965;-87
2022/01/23 07:48:18;;;;;;;;;;;;;;;2.81;91.44;102315.81;4976823;28;1261;-86
2022/01/23 07:50:43;;;;;;;;;;;;;;;2.87;91.72;102325.91;4975236;28;1612;-86
2022/01/23 07:53:08;;;;;;;;;;;;;;;2.95;91.55;102320.41;4963813;28;1760;-87
2022/01/23 07:55:33;;;;;;;;;;;;;;;3.01;91.56;102330.47;4971930;28;1386;-86
2022/01/23 07:58:04;;;;;;;;;;;;;;;3.03;91.94;102333.84;4982544;28;1744;-87
2022/01/23 08:00:30;;;;;;;;;;;;;;;2.98;92.09;102336.25;5001940;28;1571;-87
2022/01/23 08:02:55;;;;;;;;;;;;;;;3.03;91.75;102331.16;4994441;28;1348;-87
2022/01/23 08:05:20;;;;;;;;;;;;;;;2.96;92.22;102335.63;4983375;28;1906;-88
2022/01/23 08:07:45;;;;;;;;;;;;;;;3.06;91.99;102342.63;4976784;28;1964;-88
2022/01/23 08:10:10;;;;;;;;;;;;;;;3.13;91.75;102341.69;4976554;28;1291;-86
2022/01/23 08:12:38;;;;;;;;;;;;;;;3.14;92.30;102337.13;4969733;28;1479;-87
2022/01/23 08:15:04;;;;;;;;;;;;;;;3.20;91.94;102342.63;4997626;28;1464;-87
2022/01/23 08:17:30;;;;;;;;;;;;;;;3.21;92.19;102344.31;4976235;28;1552;-85
2022/01/23 08:19:57;;;;;;;;;;;;;;;3.25;91.91;102342.88;4981424;28;1170;-87
2022/01/23 08:22:23;;;;;;;;;;;;;;;3.33;92.17;102342.78;5000250;28;1312;-87
2022/01/23 08:24:49;;;;;;;;;;;;;;;3.36;92.23;102342.41;4982208;28;1890;-87
2022/01/23 08:27:14;;;;;;;;;;;;;;;3.32;92.49;102341.09;4982401;28;1328;-88
2022/01/23 08:29:39;;;;;;;;;;;;;;;3.39;92.33;102346.63;4983440;28;1261;-88
2022/01/23 08:32:05;;;;;;;;;;;;;;;3.47;92.28;102351.94;4982232;28;1925;-87
2022/01/23 08:34:30;;;;;;;;;;;;;;;3.54;92.24;102360.13;4982309;28;1485;-88
2022/01/23 08:36:55;;;;;;;;;;;;;;;3.52;92.52;102363.03;4999595;28;1190;-88
2022/01/23 08:39:22;;;;;;;;;;;;;;;3.52;92.46;102364.91;4982237;28;1169;-88
2022/01/23 08:41:50;;;;;;;;;;;;;;;3.57;92.67;102360.63;4983299;28;1547;-88
2022/01/23 08:44:26;;;;;;;;;;;;;;;3.62;92.43;102363.59;4999861;28;1598;-88
2022/01/23 08:46:52;;;;;;;;;;;;;;;3.73;92.71;102370.38;4981540;28;1899;-87
2022/01/23 08:49:19;;;;;;;;;;;;;;;3.77;92.71;102375.22;4982258;28;1198;-85
2022/01/23 08:51:44;;;;;;;;;;;;;;;3.82;92.48;102374.66;4996097;28;1504;-85
2022/01/23 08:54:10;;;;;;;;;;;;;;;3.78;92.64;102382.31;4996239;28;1543;-86
2022/01/23 08:56:35;;;;;;;;;;;;;;;3.83;92.61;102378.22;4996318;28;1208;-85
2022/01/23 08:59:00;;;;;;;;;;;;;;;3.87;92.77;102385.75;4978783;28;1451;-85
2022/01/23 09:01:28;;;;;;;;;;;;;;;3.91;92.40;102376.22;4978912;28;951;-86
2022/01/23 09:03:53;;;;;;;;;;;;;;;3.91;92.42;102380.81;4978736;28;1468;-84
2022/01/23 09:06:19;;;;;;;;;;;;;;;3.92;92.45;102369.75;4978583;28;1906;-85
2022/01/23 09:08:45;;;;;;;;;;;;;;;3.94;92.60;102378.53;4977830;28;1272;-85
2022/01/23 09:11:24;;;;;;;;;;;;;;;3.94;92.45;102380.41;4995786;28;1563;-85
2022/01/23 09:16:15;;;;;;;;;;;;;;;3.96;92.19;102384.63;4996162;28;1268;-86
2022/01/23 09:18:40;;;;;;;;;;;;;;;3.98;92.63;102381.72;4995547;28;1246;-85
2022/01/23 09:21:05;;;;;;;;;;;;;;;4.01;92.15;102392.16;4978315;28;1363;-85
2022/01/23 09:23:31;;;;;;;;;;;;;;;4.05;92.47;102374.50;4995115;28;1382;-85
2022/01/23 09:25:59;;;;;;;;;;;;;;;4.05;92.12;102369.94;4978053;28;1902;-85
2022/01/23 09:28:31;;;;;;;;;;;;;;;4.07;92.07;102370.56;4995604;28;1414;-86
2022/01/23 09:30:56;;;;;;;;;;;;;;;4.08;92.13;102379.56;4978653;28;1348;-84
2022/01/23 09:33:21;;;;;;;;;;;;;;;4.14;92.03;102376.06;4977708;28;1407;-85
2022/01/23 09:35:46;;;;;;;;;;;;;;;4.14;92.14;102373.34;4978268;28;1297;-85
2022/01/23 09:38:12;;;;;;;;;;;;;;;4.21;92.17;102376.13;4978347;28;1725;-85
2022/01/23 09:40:39;;;;;;;;;;;;;;;4.25;91.93;102375.56;4978450;28;1291;-85
2022/01/23 09:43:06;;;;;;;;;;;;;;;4.21;92.09;102376.13;4978122;28;1194;-86
2022/01/23 09:45:31;;;;;;;;;;;;;;;4.28;92.30;102383.28;4977800;28;1978;-85
2022/01/23 09:47:59;;;;;;;;;;;;;;;4.34;92.06;102381.69;4995909;28;872;-86
2022/01/23 09:50:25;;;;;;;;;;;;;;;4.36;92.00;102382.31;4978155;28;1368;-86
2022/01/23 09:52:52;;;;;;;;;;;;;;;4.32;92.13;102384.59;4980571;28;1325;-85
2022/01/23 09:55:18;;;;;;;;;;;;;;;4.32;91.85;102383.75;4978198;28;1280;-85
2022/01/23 09:57:45;;;;;;;;;;;;;;;4.32;91.76;102387.31;4978346;28;1376;-86
2022/01/23 10:00:12;;;;;;;;;;;;;;;4.36;92.03;102387.75;4995541;28;1387;-85
2022/01/23 10:02:37;;;;;;;;;;;;;;;4.35;91.91;102389.63;4978007;28;1489;-85
2022/01/23 10:05:06;;;;;;;;;;;;;;;4.35;91.45;102384.19;4995474;28;1902;-84
2022/01/23 10:07:37;;;;;;;;;;;;;;;4.38;91.72;102382.97;4963778;28;1225;-85
2022/01/23 10:10:14;;;;;;;;;;;;;;;4.36;91.68;102371.47;4985099;28;1331;-88
2022/01/23 10:12:41;;;;;;;;;;;;;;;4.37;91.63;102384.84;4995061;28;1417;-86
2022/01/23 10:15:07;;;;;;;;;;;;;;;4.37;91.42;102378.59;4977049;28;1544;-86
2022/01/23 10:17:32;;;;;;;;;;;;;;;4.39;91.47;102379.22;4977150;28;1301;-86
2022/01/23 10:19:57;;;;;;;;;;;;;;;4.41;91.70;102388.03;4977230;28;1533;-86
2022/01/23 10:22:24;;;;;;;;;;;;;;;4.41;91.44;102377.19;4977303;28;1593;-86
2022/01/23 10:24:50;;;;;;;;;;;;;;;4.47;91.59;102384.53;4977362;28;1509;-85
2022/01/23 15:04:45;;;;;;;;;;;;;;;5.10;90.72;102323.03;1118506;23;2554;-87
2022/01/23 15:07:15;;;;;;;;;;;;;;;5.10;91.25;102328.47;4991672;28;1975;-88
2022/01/23 15:09:40;;;;;;;;;;;;;;;5.09;91.16;102324.91;4978001;28;1287;-90
2022/01/23 15:12:05;;;;;;;;;;;;;;;5.10;91.40;102331.19;4974264;28;1604;-88
2022/01/23 15:14:30;;;;;;;;;;;;;;;5.05;90.62;102328.22;4994365;28;1535;-89
2022/01/23 15:16:55;;;;;;;;;;;;;;;5.04;91.18;102329.25;4993159;28;1307;-89
2022/01/23 15:19:21;;;;;;;;;;;;;;;5.05;91.00;102337.19;4977335;28;1415;-88
2022/01/23 15:21:46;;;;;;;;;;;;;;;5.04;91.46;102334.69;4992887;28;1323;-90
2022/01/23 15:24:11;;;;;;;;;;;;;;;5.06;91.06;102343.47;4977630;28;1309;-89
2022/01/23 15:26:37;;;;;;;;;;;;;;;5.06;91.57;102343.47;4978103;28;1894;-91
2022/01/23 15:29:03;;;;;;;;;;;;;;;5.01;91.26;102337.81;4962037;28;1379;-91
2022/01/23 15:31:28;;;;;;;;;;;;;;;5.01;91.66;102329.66;4978088;28;1272;-89
2022/01/23 15:33:53;;;;;;;;;;;;;;;5.04;91.37;102334.69;4995583;28;1053;-90
2022/01/23 15:36:19;;;;;;;;;;;;;;;5.03;91.93;102330.28;4979253;28;1174;-89
2022/01/23 15:38:44;;;;;;;;;;;;;;;5.02;91.16;102336.78;4978220;28;1222;-90
2022/01/23 15:41:10;;;;;;;;;;;;;;;5.01;91.46;102335.09;4977451;28;1316;-90
2022/01/23 15:43:35;;;;;;;;;;;;;;;5.00;91.41;102338.84;4977118;28;1271;-90
2022/01/23 15:46:03;;;;;;;;;;;;;;;4.99;91.79;102342.59;4977544;28;1952;-90
2022/01/23 15:48:30;;;;;;;;;;;;;;;4.99;91.46;102338.00;4977283;28;1221;-90
2022/01/23 15:50:56;;;;;;;;;;;;;;;4.97;91.69;102336.50;4977323;28;1303;-90
2022/01/23 15:53:22;;;;;;;;;;;;;;;4.97;91.42;102341.94;4977171;28;1092;-89
2022/01/23 15:55:48;;;;;;;;;;;;;;;4.99;91.89;102348.00;4977578;28;1392;-92
2022/01/23 15:58:13;;;;;;;;;;;;;;;4.98;91.33;102349.03;4977674;28;1357;-90
2022/01/23 16:00:38;;;;;;;;;;;;;;;4.95;91.18;102351.13;4976954;28;1328;-89
2022/01/23 16:03:03;;;;;;;;;;;;;;;4.95;91.33;102352.97;4976962;28;1153;-90
2022/01/23 16:05:29;;;;;;;;;;;;;;;4.94;91.89;102354.00;4976752;28;1898;-91
2022/01/23 16:07:54;;;;;;;;;;;;;;;4.94;91.31;102351.31;4977320;28;1511;-89
2022/01/23 16:10:19;;;;;;;;;;;;;;;4.96;92.03;102357.38;4972131;28;1616;-90
2022/01/23 16:12:44;;;;;;;;;;;;;;;4.96;91.87;102354.66;4957575;28;1184;-91
2022/01/23 16:15:11;;;;;;;;;;;;;;;4.95;91.47;102353.81;4975114;28;768;-88
2022/01/23 16:17:36;;;;;;;;;;;;;;;4.95;91.82;102364.69;4957258;28;1324;-90
2022/01/23 16:20:04;;;;;;;;;;;;;;;4.92;91.40;102364.25;4965887;28;1553;-89
2022/01/23 16:22:29;;;;;;;;;;;;;;;4.90;91.46;102363.59;4976318;28;1593;-89
2022/01/23 16:24:54;;;;;;;;;;;;;;;4.88;91.64;102363.78;4976505;28;1306;-89
2022/01/23 16:27:19;;;;;;;;;;;;;;;4.90;91.30;102360.91;4994020;23;2068;-88
2022/01/23 16:29:44;;;;;;;;;;;;;;;4.88;91.63;102368.38;4995742;28;2027;-85
2022/01/23 16:32:10;;;;;;;;;;;;;;;4.89;91.66;102375.50;5016771;28;831;-85
2022/01/23 16:34:36;;;;;;;;;;;;;;;4.88;91.38;102363.78;5003330;28;1029;-84
2022/01/23 16:37:02;;;;;;;;;;;;;;;4.86;91.84;102368.56;5021005;28;1280;-84
2022/01/23 16:39:27;;;;;;;;;;;;;;;4.84;91.21;102373.38;4985347;28;1461;-84
2022/01/23 16:41:52;;;;;;;;;;;;;;;4.86;91.43;102381.31;4984114;28;1329;-85
2022/01/23 16:44:21;;;;;;;;;;;;;;;4.88;91.80;102379.25;5002266;28;1394;-84
2022/01/23 16:46:46;;;;;;;;;;;;;;;4.83;91.22;102382.56;5005172;28;1910;-85
2022/01/23 16:49:12;;;;;;;;;;;;;;;4.83;91.13;102382.56;4984448;28;1376;-84
2022/01/23 16:51:38;;;;;;;;;;;;;;;4.83;91.42;102374.41;4987188;28;1665;-83
2022/01/23 16:54:04;;;;;;;;;;;;;;;4.82;91.67;102386.31;4985411;28;1406;-84
2022/01/23 16:56:30;;;;;;;;;;;;;;;4.81;91.49;102370.22;4984269;28;1393;-82
2022/01/23 16:58:55;;;;;;;;;;;;;;;4.81;91.46;102384.63;4988684;28;1458;-83
2022/01/23 17:01:20;;;;;;;;;;;;;;;4.84;91.63;102384.25;4992603;28;1332;-83
2022/01/23 17:03:45;;;;;;;;;;;;;;;4.84;92.07;102381.53;4994259;28;1405;-83
2022/01/23 17:06:10;;;;;;;;;;;;;;;4.80;91.37;102384.81;4981234;28;1943;-81
2022/01/23 17:08:36;;;;;;;;;;;;;;;4.80;91.86;102382.09;4996010;28;1280;-82
2022/01/23 17:11:01;;;;;;;;;;;;;;;4.77;91.67;102374.34;4978555;28;1241;-83
2022/01/23 17:13:27;;;;;;;;;;;;;;;4.77;92.02;102388.75;4995592;28;1425;-82
2022/01/23 17:15:52;;;;;;;;;;;;;;;4.76;92.03;102384.38;4978355;28;1272;-82
2022/01/23 17:18:17;;;;;;;;;;;;;;;4.78;91.84;102381.44;4978092;28;1347;-83
2022/01/23 17:20:42;;;;;;;;;;;;;;;4.79;91.42;102381.25;4977501;28;1363;-83
2022/01/23 17:23:07;;;;;;;;;;;;;;;4.80;91.94;102382.09;4973839;28;1307;-82
2022/01/23 17:25:32;;;;;;;;;;;;;;;4.81;91.99;102383.78;4977506;28;1917;-82
2022/01/23 17:27:58;;;;;;;;;;;;;;;4.79;91.69;102385.84;4976082;28;1376;-84
2022/01/23 17:30:23;;;;;;;;;;;;;;;4.77;91.66;102386.03;4995217;28;1433;-85
2022/01/23 17:32:48;;;;;;;;;;;;;;;4.80;91.32;102384.81;4995664;28;1336;-82
2022/01/23 17:35:14;;;;;;;;;;;;;;;4.80;91.83;102382.09;4977636;28;1256;-83
2022/01/23 17:37:40;;;;;;;;;;;;;;;4.77;91.19;102388.75;4976798;28;1387;-83
2022/01/23 17:40:06;;;;;;;;;;;;;;;4.74;91.38;102389.16;4996265;28;1232;-84
2022/01/23 17:42:31;;;;;;;;;;;;;;;4.75;91.79;102390.00;4978571;28;1370;-83
2022/01/23 17:44:56;;;;;;;;;;;;;;;4.76;91.66;102387.09;4995581;28;1049;-82
2022/01/23 17:47:35;;;;;;;;;;;;;;;4.72;91.30;102384.94;4991631;28;1899;-83
2022/01/23 17:50:17;;;;;;;;;;;;;;;4.71;91.78;102384.13;4967344;28;1328;-83
2022/01/23 17:52:43;;;;;;;;;;;;;;;4.74;91.41;102389.16;4994620;28;1292;-82
2022/01/23 17:55:09;;;;;;;;;;;;;;;4.77;91.90;102388.75;4977096;28;1253;-82
2022/01/23 17:57:34;;;;;;;;;;;;;;;4.72;91.27;102380.38;4976744;28;1375;-83
2022/01/23 17:59:59;;;;;;;;;;;;;;;4.72;91.41;102379.53;4995050;28;1259;-82
2022/01/23 18:02:27;;;;;;;;;;;;;;;4.70;92.05;102381.59;4995155;28;1169;-83
2022/01/23 18:04:52;;;;;;;;;;;;;;;4.67;91.56;102382.84;4994470;28;1308;-83
2022/01/23 18:07:17;;;;;;;;;;;;;;;4.65;92.00;102379.47;4977250;28;1960;-83
2022/01/23 18:09:43;;;;;;;;;;;;;;;4.67;91.91;102388.28;4977106;28;1312;-83
2022/01/23 18:12:08;;;;;;;;;;;;;;;4.64;91.71;102391.34;4994954;28;1300;-84
2022/01/23 18:14:35;;;;;;;;;;;;;;;4.68;91.65;102389.91;4977126;28;1381;-84
2022/01/23 18:17:00;;;;;;;;;;;;;;;4.70;91.91;102381.59;4977160;28;1228;-83
2022/01/23 18:19:25;;;;;;;;;;;;;;;4.65;91.63;102384.91;4994674;28;1218;-83
2022/01/23 18:21:50;;;;;;;;;;;;;;;4.67;91.63;102390.13;4993276;28;797;-83
2022/01/23 18:24:15;;;;;;;;;;;;;;;4.70;91.78;102385.16;4977438;28;1307;-83
2022/01/23 18:26:41;;;;;;;;;;;;;;;4.71;91.79;102384.13;4977176;28;1960;-83
2022/01/23 18:29:07;;;;;;;;;;;;;;;4.68;91.58;102383.69;4977346;28;1297;-83
2022/01/23 18:31:33;;;;;;;;;;;;;;;4.66;91.85;102386.59;4976498;28;1284;-82
2022/01/23 18:33:59;;;;;;;;;;;;;;;4.68;91.87;102386.41;4976868;28;1391;-84
2022/01/23 18:36:24;;;;;;;;;;;;;;;4.71;91.37;102383.28;4977209;28;1366;-83
2022/01/23 18:38:50;;;;;;;;;;;;;;;4.72;91.53;102383.09;4973037;28;1446;-83
2022/01/23 18:41:15;;;;;;;;;;;;;;;4.71;91.49;102383.28;4976673;28;1440;-83
2022/01/23 18:43:40;;;;;;;;;;;;;;;4.67;91.37;102388.28;4958175;28;982;-83
2022/01/23 18:46:05;;;;;;;;;;;;;;;4.70;91.66;102390.56;4964591;28;1899;-84
2022/01/23 18:48:30;;;;;;;;;;;;;;;4.71;91.55;102389.53;4977671;28;1642;-82
2022/01/23 18:50:58;;;;;;;;;;;;;;;4.67;91.67;102388.28;4978101;28;1666;-82
2022/01/23 18:53:32;;;;;;;;;;;;;;;4.66;91.95;102393.88;4978355;28;1350;-83
2022/01/23 18:55:59;;;;;;;;;;;;;;;4.65;91.77;102394.91;4976881;28;1688;-83
2022/01/23 18:58:32;;;;;;;;;;;;;;;4.65;92.15;102401.19;4977526;28;1354;-83
2022/01/23 19:01:01;;;;;;;;;;;;;;;4.70;91.84;102400.56;4995267;28;877;-83
2022/01/23 19:03:38;;;;;;;;;;;;;;;4.64;92.20;102395.94;4982763;28;1347;-83
2022/01/23 19:06:15;;;;;;;;;;;;;;;4.66;92.13;102386.59;4973119;28;1890;-84
2022/01/23 19:08:42;;;;;;;;;;;;;;;4.63;92.03;102396.97;4994900;28;1677;-84
2022/01/23 19:11:07;;;;;;;;;;;;;;;4.59;91.98;102396.53;4977655;28;1518;-84
2022/01/23 19:13:32;;;;;;;;;;;;;;;4.60;92.07;102400.06;4977535;28;1348;-84
2022/01/23 19:15:59;;;;;;;;;;;;;;;4.56;92.44;102402.34;4977682;28;1335;-83
2022/01/23 19:18:24;;;;;;;;;;;;;;;4.56;92.11;102397.75;4977471;28;1778;-84
2022/01/23 19:20:50;;;;;;;;;;;;;;;4.54;91.91;102396.25;4977782;28;1792;-84
2022/01/23 19:23:15;;;;;;;;;;;;;;;4.55;92.33;102400.66;4993792;28;1680;-84
2022/01/23 19:25:40;;;;;;;;;;;;;;;4.62;92.33;102396.13;4977596;28;1894;-82
2022/01/23 19:28:06;;;;;;;;;;;;;;;4.69;91.90;102404.31;4995881;28;1593;-83
2022/01/23 19:30:35;;;;;;;;;;;;;;;4.72;92.12;102396.66;4977597;28;1621;-84
2022/01/23 19:33:00;;;;;;;;;;;;;;;4.75;92.07;102396.25;4977255;28;1276;-84
2022/01/23 19:35:27;;;;;;;;;;;;;;;4.74;91.92;102397.28;4977389;28;1205;-84
2022/01/23 19:37:54;;;;;;;;;;;;;;;4.75;92.18;102392.72;4995958;28;1676;-83
2022/01/23 19:40:27;;;;;;;;;;;;;;;4.80;92.25;102398.38;4995091;28;800;-83
2022/01/23 19:45:20;;;;;;;;;;;;;;;4.73;92.53;102398.31;4996225;28;1416;-84
2022/01/23 19:47:54;;;;;;;;;;;;;;;4.66;92.08;102400.16;4996182;28;1890;-84
2022/01/23 19:50:19;;;;;;;;;;;;;;;4.65;92.20;102397.63;4978144;28;1566;-83
2022/01/23 19:52:44;;;;;;;;;;;;;;;4.63;92.23;102399.69;4977036;28;1389;-84
2022/01/23 19:55:10;;;;;;;;;;;;;;;4.63;92.39;102397.81;4982431;28;1260;-83
2022/01/23 19:57:35;;;;;;;;;;;;;;;4.69;92.32;102402.44;4964681;28;1672;-84
2022/01/23 20:00:00;;;;;;;;;;;;;;;4.73;92.29;102400.19;4978075;28;1453;-83
2022/01/23 20:02:26;;;;;;;;;;;;;;;4.73;92.54;102392.91;4978804;28;1360;-83